Time;durP1;ratioP1;P1;durP2;ratioP2;P2;SDS_P1;SDS_P2;PMS_P1;PMS_P2;Temp;Humidity;BMP_temperature;BMP_pressure;BME280_temperature;BME280_humidity;BME280_pressure;Samples;Min_cycle;Max_cycle;Signal;HPM_P1;HPM_P2
2021/01/22 00:00:41;;;;;;;4.53;4.13;;;;;;;5.13;76.35;96214.81;5003525;28;20933;-74
2021/01/22 00:03:09;;;;;;;3.70;3.50;;;;;;;5.12;75.55;96206.13;5009581;28;20691;-73
2021/01/22 00:05:36;;;;;;;4.27;3.87;;;;;;;5.12;76.37;96197.41;5003103;28;20212;-73
2021/01/22 00:08:03;;;;;;;5.40;3.57;;;;;;;5.07;76.99;96211.06;5001026;28;20859;-74
2021/01/22 00:10:30;;;;;;;3.87;3.67;;;;;;;5.12;76.93;96214.00;5005530;28;20209;-74
2021/01/22 00:12:57;;;;;;;3.40;3.20;;;;;;;5.07;77.16;96217.13;5005895;28;20355;-74
2021/01/22 00:15:25;;;;;;;3.17;2.93;;;;;;;4.95;79.65;96212.44;5007813;28;20204;-73
2021/01/22 00:17:52;;;;;;;3.50;3.30;;;;;;;4.86;78.73;96211.66;5004512;28;20205;-73
2021/01/22 00:20:19;;;;;;;4.67;3.27;;;;;;;4.81;79.95;96206.13;5001079;28;20308;-75
2021/01/22 00:22:46;;;;;;;3.70;3.43;;;;;;;4.75;81.50;96182.19;5004035;28;20671;-74
2021/01/22 00:25:13;;;;;;;3.60;3.40;;;;;;;4.58;82.54;96149.97;5008709;28;20205;-74
2021/01/22 00:27:40;;;;;;;3.80;3.53;;;;;;;4.56;82.43;96138.03;5000869;28;20209;-74
2021/01/22 00:30:10;;;;;;;3.90;3.60;;;;;;;4.57;82.94;96122.09;5005666;28;20211;-75
2021/01/22 00:32:38;;;;;;;3.80;3.27;;;;;;;4.58;83.67;96117.69;5002996;28;20378;-74
2021/01/22 00:35:09;;;;;;;3.43;3.13;;;;;;;4.62;83.16;96111.91;5001882;28;20271;-74
2021/01/22 00:37:36;;;;;;;3.80;2.90;;;;;;;4.55;84.47;96099.66;5007649;28;20212;-74
2021/01/22 00:40:04;;;;;;;3.60;3.23;;;;;;;4.62;83.48;96092.75;5003122;28;20495;-74
2021/01/22 00:42:32;;;;;;;2.90;2.80;;;;;;;4.78;80.53;96083.94;5003570;28;20232;-74
2021/01/22 00:44:59;;;;;;;3.57;3.27;;;;;;;4.85;79.77;96078.78;5002606;28;20477;-74
2021/01/22 00:47:26;;;;;;;2.93;2.73;;;;;;;4.98;77.56;96073.78;5002155;28;20373;-75
2021/01/22 00:49:54;;;;;;;2.97;2.77;;;;;;;4.97;76.94;96069.53;5002659;28;20236;-75
2021/01/22 00:52:20;;;;;;;3.27;3.00;;;;;;;5.08;76.12;96076.16;5012101;28;20231;-74
2021/01/22 00:54:47;;;;;;;3.10;2.90;;;;;;;5.11;75.60;96077.63;5000693;28;20235;-74
2021/01/22 00:57:14;;;;;;;3.40;3.10;;;;;;;5.10;75.67;96076.00;5003984;28;20212;-73
2021/01/22 00:59:42;;;;;;;2.73;2.53;;;;;;;5.18;75.06;96068.88;5004208;28;20209;-74
2021/01/22 01:02:09;;;;;;;3.07;2.87;;;;;;;5.19;75.85;96056.53;5011995;28;20274;-74
2021/01/22 01:04:36;;;;;;;3.43;3.23;;;;;;;5.25;77.20;96053.19;5002646;28;20259;-74
2021/01/22 01:07:04;;;;;;;3.30;3.10;;;;;;;5.15;79.24;96047.41;4999575;28;20204;-74
2021/01/22 01:09:31;;;;;;;3.40;3.10;;;;;;;5.03;81.42;96045.19;5004586;28;20211;-74
2021/01/22 01:11:58;;;;;;;3.33;3.13;;;;;;;5.04;81.89;96032.88;5003525;28;20208;-74
2021/01/22 01:14:25;;;;;;;3.03;2.83;;;;;;;4.93;83.11;96032.31;5009745;28;21090;-75
2021/01/22 01:16:52;;;;;;;3.20;2.90;;;;;;;4.89;83.58;96027.56;5005763;28;20205;-74
2021/01/22 01:19:19;;;;;;;3.10;2.90;;;;;;;4.86;84.30;96022.69;5009800;28;20204;-74
2021/01/22 01:21:46;;;;;;;3.00;2.80;;;;;;;5.00;83.24;96015.84;5009991;28;20208;-73
2021/01/22 01:24:14;;;;;;;2.97;2.77;;;;;;;4.86;84.54;96025.31;5007965;28;20208;-75
2021/01/22 01:26:41;;;;;;;3.13;2.83;;;;;;;4.75;85.52;96014.25;5005535;28;20251;-73
2021/01/22 01:29:08;;;;;;;2.97;2.77;;;;;;;4.78;84.58;96016.50;5007038;28;20573;-73
2021/01/22 01:31:35;;;;;;;2.57;2.47;;;;;;;4.70;85.27;96021.00;5006616;28;20859;-74
2021/01/22 01:34:02;;;;;;;3.40;3.13;;;;;;;4.57;85.99;96011.13;5004900;28;20263;-75
2021/01/22 01:36:29;;;;;;;2.57;2.37;;;;;;;4.53;86.31;96005.41;5010410;28;20231;-75
2021/01/22 01:38:56;;;;;;;3.07;2.27;;;;;;;4.46;86.79;96017.56;5007666;28;20204;-74
2021/01/22 01:41:25;;;;;;;2.67;2.57;;;;;;;4.47;86.22;96017.38;5013045;28;20216;-75
2021/01/22 01:43:52;;;;;;;2.70;2.50;;;;;;;4.44;86.44;96015.13;5006471;28;20946;-74
2021/01/22 01:46:19;;;;;;;2.63;2.43;;;;;;;4.38;87.16;96012.38;5009277;28;20212;-74
2021/01/22 01:48:46;;;;;;;3.80;2.60;;;;;;;4.42;86.92;96011.06;5020989;28;20288;-75
2021/01/22 01:51:13;;;;;;;2.53;2.43;;;;;;;4.40;87.17;96021.69;5006145;28;20236;-74
2021/01/22 01:53:40;;;;;;;3.10;2.67;;;;;;;4.54;86.63;96019.31;5008098;28;20221;-74
2021/01/22 01:56:07;;;;;;;2.43;2.33;;;;;;;4.67;85.70;96018.72;5006996;28;20213;-75
2021/01/22 01:58:35;;;;;;;2.37;2.27;;;;;;;4.77;85.05;96016.72;5006025;28;20209;-74
2021/01/22 02:01:03;;;;;;;2.50;2.30;;;;;;;4.82;84.49;96014.38;5007571;28;20231;-74
2021/01/22 02:03:30;;;;;;;2.27;2.07;;;;;;;4.78;84.89;96020.97;5003070;28;20640;-74
2021/01/22 02:06:01;;;;;;;3.00;2.33;;;;;;;4.87;84.10;96012.03;5002031;28;20300;-74
2021/01/22 02:08:28;;;;;;;2.23;2.13;;;;;;;5.07;82.80;96004.47;5000742;28;20555;-74
2021/01/22 02:10:55;;;;;;;2.50;2.40;;;;;;;5.12;82.44;95990.81;5005841;28;20984;-75
2021/01/22 02:13:22;;;;;;;2.33;2.10;;;;;;;5.11;82.28;95986.53;5003806;28;20618;-72
2021/01/22 02:15:50;;;;;;;2.03;1.93;;;;;;;5.25;80.53;95994.63;4998412;28;20239;-74
2021/01/22 02:18:18;;;;;;;2.30;2.20;;;;;;;5.33;80.32;96005.03;5004980;28;20588;-74
2021/01/22 02:20:59;;;;;;;2.17;2.07;;;;;;;5.35;79.61;96008.31;5010689;28;20214;-73
2021/01/22 02:23:27;;;;;;;1.93;1.83;;;;;;;5.43;78.74;96000.31;5002115;28;20590;-74
2021/01/22 02:25:59;;;;;;;2.23;2.03;;;;;;;5.47;78.20;95992.91;5000979;28;20259;-74
2021/01/22 02:28:27;;;;;;;1.77;1.67;;;;;;;5.61;76.72;95993.91;5004239;28;20215;-74
2021/01/22 02:30:54;;;;;;;2.03;1.93;;;;;;;5.68;76.67;95988.72;5004532;28;20209;-75
2021/01/22 02:33:21;;;;;;;2.83;2.73;;;;;;;5.76;76.08;95981.56;5010007;28;20221;-75
2021/01/22 02:35:51;;;;;;;1.60;1.50;;;;;;;5.77;76.04;95983.19;5013412;28;20890;-74
2021/01/22 02:38:20;;;;;;;1.80;1.70;;;;;;;5.78;76.53;95989.28;5016179;28;20317;-74
2021/01/22 02:40:48;;;;;;;1.33;1.27;;;;;;;5.97;75.40;95987.91;5012357;28;20687;-74
2021/01/22 02:43:16;;;;;;;2.53;1.40;;;;;;;6.03;75.62;95992.44;5006401;28;20256;-74
2021/01/22 02:45:45;;;;;;;1.20;1.10;;;;;;;6.05;75.54;95992.25;5012627;28;20209;-74
2021/01/22 02:48:13;;;;;;;1.10;1.10;;;;;;;6.22;74.84;95988.41;5014700;28;20897;-74
2021/01/22 02:50:40;;;;;;;1.57;1.47;;;;;;;6.17;75.05;95984.69;5009475;28;20216;-74
2021/01/22 02:53:07;;;;;;;1.60;1.50;;;;;;;6.28;74.24;95978.13;5013010;28;20231;-74
2021/01/22 02:55:35;;;;;;;1.23;1.23;;;;;;;6.31;74.32;95970.69;5004889;28;20210;-74
2021/01/22 02:58:09;;;;;;;1.80;1.70;;;;;;;6.34;73.93;95972.97;5005205;28;20231;-74
2021/01/22 03:00:39;;;;;;;1.37;1.37;;;;;;;6.51;72.93;95968.25;5009708;28;20457;-75
2021/01/22 03:03:08;;;;;;;1.97;1.50;;;;;;;6.59;72.92;95969.94;5018237;28;20246;-74
2021/01/22 03:05:38;;;;;;;1.20;1.20;;;;;;;6.68;72.48;95956.66;5014501;28;20205;-74
2021/01/22 03:08:08;;;;;;;1.10;1.10;;;;;;;6.55;73.23;95955.53;5009603;28;20220;-74
2021/01/22 03:10:36;;;;;;;1.20;1.10;;;;;;;6.57;73.32;95961.41;5001864;28;20739;-73
2021/01/22 03:13:04;;;;;;;1.47;1.37;;;;;;;6.61;72.60;95954.75;5009719;28;20724;-74
2021/01/22 03:15:33;;;;;;;1.50;1.50;;;;;;;6.66;72.69;95947.16;5019661;28;20516;-75
2021/01/22 03:18:14;;;;;;;1.60;1.50;;;;;;;6.66;72.34;95967.38;5006208;28;20216;-74
2021/01/22 03:20:42;;;;;;;2.63;1.57;;;;;;;6.73;72.31;95964.81;5013228;28;20219;-73
2021/01/22 03:23:10;;;;;;;1.63;1.40;;;;;;;6.75;71.89;95976.75;5005441;28;20235;-75
2021/01/22 03:25:37;;;;;;;1.57;1.43;;;;;;;6.84;71.85;95972.19;5012824;28;20688;-75
2021/01/22 03:28:05;;;;;;;1.30;1.20;;;;;;;6.85;71.32;95973.81;5007608;28;20748;-75
2021/01/22 03:30:32;;;;;;;1.57;1.47;;;;;;;6.84;71.69;95968.75;5009134;28;20224;-75
2021/01/22 03:32:59;;;;;;;1.60;1.50;;;;;;;6.71;72.34;95972.88;5006002;28;20638;-74
2021/01/22 03:35:28;;;;;;;1.33;1.23;;;;;;;6.74;73.01;95982.22;5001600;28;20295;-74
2021/01/22 03:37:56;;;;;;;1.50;1.40;;;;;;;6.69;72.94;95964.34;5003795;28;20674;-73
2021/01/22 03:40:24;;;;;;;1.40;1.30;;;;;;;6.77;72.80;95964.22;4997252;28;20320;-72
2021/01/22 03:42:50;;;;;;;1.33;1.23;;;;;;;6.73;73.06;95975.34;5004024;28;20241;-74
2021/01/22 03:45:18;;;;;;;1.00;1.00;;;;;;;6.65;73.66;95965.75;5006602;28;20205;-74
2021/01/22 03:47:45;;;;;;;1.10;1.10;;;;;;;6.70;73.95;95959.91;5008906;28;20204;-72
2021/01/22 03:50:13;;;;;;;1.37;1.33;;;;;;;6.58;74.42;95960.41;4999383;28;20565;-74
2021/01/22 03:52:41;;;;;;;1.30;1.30;;;;;;;6.60;74.50;95953.13;5009208;28;20233;-74
2021/01/22 03:55:09;;;;;;;1.17;1.17;;;;;;;6.57;74.65;95956.16;5006983;28;20615;-74
2021/01/22 03:57:36;;;;;;;1.07;0.90;;;;;;;6.61;75.10;95941.59;5006131;28;20216;-74
2021/01/22 04:00:16;;;;;;;1.07;1.07;;;;;;;6.73;74.37;95954.28;5009121;28;20204;-74
2021/01/22 04:02:43;;;;;;;1.20;1.10;;;;;;;6.71;74.25;95932.59;5012367;28;20736;-74
2021/01/22 04:05:20;;;;;;;1.47;1.30;;;;;;;6.73;74.37;95936.66;5009222;28;20306;-73
2021/01/22 04:07:48;;;;;;;1.40;1.10;;;;;;;6.65;74.82;95931.53;5004625;28;20218;-73
2021/01/22 04:10:18;;;;;;;1.17;1.17;;;;;;;6.76;74.25;95930.19;5007758;28;20232;-72
2021/01/22 04:12:45;;;;;;;1.57;1.20;;;;;;;6.79;76.42;95924.56;5007467;28;20228;-69
2021/01/22 04:15:13;;;;;;;1.40;1.27;;;;;;;6.78;74.42;95936.09;5001585;28;20216;-74
2021/01/22 04:17:40;;;;;;;1.17;1.00;;;;;;;6.63;75.02;95923.84;4998402;28;20206;-72
2021/01/22 04:20:12;;;;;;;1.10;1.10;;;;;;;6.49;75.41;95924.72;5004904;28;20213;-71
2021/01/22 04:22:39;;;;;;;1.30;1.20;;;;;;;6.53;75.37;95928.59;5006423;28;20240;-74
2021/01/22 04:25:09;;;;;;;1.77;1.60;;;;;;;6.45;75.56;95936.63;5008554;28;20239;-74
2021/01/22 04:27:36;;;;;;;2.90;1.30;;;;;;;6.44;75.66;95937.63;5001158;28;20209;-73
2021/01/22 04:30:06;;;;;;;1.43;1.33;;;;;;;6.46;75.39;95936.44;5009199;28;20216;-73
2021/01/22 04:32:33;;;;;;;1.30;1.00;;;;;;;6.44;75.48;95943.72;5006263;28;20239;-73
2021/01/22 04:35:00;;;;;;;1.07;0.93;;;;;;;6.41;76.15;95946.69;5007261;28;20238;-73
2021/01/22 04:37:28;;;;;;;1.43;1.33;;;;;;;6.46;75.71;95935.63;5008701;28;20216;-73
2021/01/22 04:39:55;;;;;;;1.30;1.20;;;;;;;6.39;76.21;95926.84;5006531;28;20205;-73
2021/01/22 04:42:22;;;;;;;1.17;1.17;;;;;;;6.27;76.71;95943.16;5016121;28;20546;-72
2021/01/22 04:44:49;;;;;;;1.17;1.10;;;;;;;6.42;75.81;95927.28;5001116;28;20204;-73
2021/01/22 04:47:16;;;;;;;1.53;1.43;;;;;;;6.25;76.80;95925.91;4996042;28;20462;-73
2021/01/22 04:49:46;;;;;;;1.03;1.03;;;;;;;6.30;76.23;95921.72;5005898;28;20207;-72
2021/01/22 04:52:13;;;;;;;1.57;1.20;;;;;;;6.30;76.52;95921.72;5004212;28;20232;-74
2021/01/22 04:54:42;;;;;;;1.33;1.20;;;;;;;6.21;76.79;95925.44;5002951;28;20705;-74
2021/01/22 04:57:10;;;;;;;1.33;1.00;;;;;;;6.30;76.49;95913.00;5005771;28;20216;-74
2021/01/22 04:59:46;;;;;;;1.23;1.23;;;;;;;6.27;76.57;95926.53;5016196;28;20216;-75
2021/01/22 05:02:13;;;;;;;1.60;1.50;;;;;;;6.21;76.71;95918.41;5003261;28;20570;-77
2021/01/22 05:04:41;;;;;;;1.37;1.23;;;;;;;6.21;75.91;95923.66;5000826;28;20661;-74
2021/01/22 05:07:09;;;;;;;1.20;1.20;;;;;;;6.15;76.59;95920.94;4998728;28;20657;-77
2021/01/22 05:09:36;;;;;;;1.40;1.30;;;;;;;6.13;76.70;95902.75;4995195;28;20209;-74
2021/01/22 05:12:04;;;;;;;1.30;1.20;;;;;;;6.07;77.30;95895.59;5008810;28;20224;-74
2021/01/22 05:14:31;;;;;;;1.70;1.60;;;;;;;6.17;76.31;95903.16;5006300;28;20206;-74
2021/01/22 05:17:04;;;;;;;1.63;1.50;;;;;;;6.11;76.77;95896.03;5004097;28;20220;-74
2021/01/22 05:19:31;;;;;;;1.50;1.40;;;;;;;6.07;76.51;95891.16;5004941;28;20263;-75
2021/01/22 05:22:00;;;;;;;1.13;1.03;;;;;;;5.93;77.57;95890.16;5003702;28;20244;-72
2021/01/22 05:24:28;;;;;;;2.50;1.77;;;;;;;5.96;77.34;95885.53;5001272;28;20228;-74
2021/01/22 05:27:04;;;;;;;1.40;1.40;;;;;;;5.99;77.09;95888.59;4999702;28;20216;-76
2021/01/22 05:29:32;;;;;;;2.57;1.13;;;;;;;5.98;77.19;95888.78;5001437;28;20200;-73
2021/01/22 05:31:59;;;;;;;1.50;1.40;;;;;;;5.86;77.18;95886.66;5003370;28;20291;-74
2021/01/22 05:34:45;;;;;;;1.50;1.40;;;;;;;5.87;77.21;95890.91;5002238;28;20769;-72
2021/01/22 05:37:12;;;;;;;1.50;1.40;;;;;;;5.84;77.24;95890.44;5000956;28;20319;-74
2021/01/22 05:39:40;;;;;;;2.17;1.50;;;;;;;5.86;77.13;95888.44;5000482;28;20505;-75
2021/01/22 05:42:08;;;;;;;1.93;1.27;;;;;;;5.88;76.90;95897.00;4999462;28;20585;-74
2021/01/22 05:44:35;;;;;;;2.10;1.97;;;;;;;5.81;77.38;95899.53;5002430;28;20224;-80
2021/01/22 05:47:07;;;;;;;1.88;1.63;;;;;;;5.88;76.69;95902.25;5005487;28;20443;-76
2021/01/22 05:49:55;;;;;;;1.40;1.30;;;;;;;5.91;76.57;95901.88;4997132;28;20245;-75
2021/01/22 05:52:22;;;;;;;1.63;1.53;;;;;;;5.99;75.93;95906.19;4996365;28;20225;-76
2021/01/22 05:54:49;;;;;;;1.53;1.53;;;;;;;5.87;76.70;95905.84;5007189;28;20695;-75
2021/01/22 05:57:16;;;;;;;2.90;1.60;;;;;;;5.96;75.88;95903.94;5001500;28;20208;-77
2021/01/22 05:59:43;;;;;;;2.17;1.60;;;;;;;6.01;75.54;95901.59;5010707;28;20211;-76
2021/01/22 06:02:26;;;;;;;1.70;1.60;;;;;;;5.95;77.01;95897.88;5003065;28;20225;-77
2021/01/22 06:05:14;;;;;;;1.73;1.63;;;;;;;6.03;75.93;95889.91;5003180;28;20213;-77
2021/01/22 06:07:42;;;;;;;1.50;1.40;;;;;;;6.15;74.96;95889.38;4998212;28;20219;-76
2021/01/22 06:10:13;;;;;;;2.00;1.80;;;;;;;6.12;76.17;95887.97;5010259;28;20467;-76
2021/01/22 06:12:46;;;;;;;2.87;1.90;;;;;;;6.26;74.81;95877.56;5006768;28;20233;-77
2021/01/22 06:15:15;;;;;;;3.67;1.83;;;;;;;6.31;74.11;95870.72;5008039;28;20201;-74
2021/01/22 06:17:46;;;;;;;2.77;1.40;;;;;;;6.31;73.54;95872.53;5006679;28;20208;-77
2021/01/22 06:20:17;;;;;;;2.40;1.40;;;;;;;6.23;73.79;95866.41;5010774;28;20205;-75
2021/01/22 06:23:12;;;;;;;0.90;0.90;;;;;;;6.25;73.82;95868.88;5007824;28;20696;-77
2021/01/22 06:25:40;;;;;;;1.57;1.30;;;;;;;6.29;74.61;95878.00;4990558;28;20220;-76
2021/01/22 06:28:08;;;;;;;1.33;1.33;;;;;;;6.29;74.23;95870.13;5008982;28;20213;-76
2021/01/22 06:30:36;;;;;;;2.63;1.60;;;;;;;6.39;74.79;95876.88;5011307;28;20558;-75
2021/01/22 06:33:06;;;;;;;1.20;1.20;;;;;;;6.40;73.65;95887.19;5012655;28;20220;-75
2021/01/22 06:35:38;;;;;;;2.10;1.50;;;;;;;6.34;74.44;95880.06;5006109;28;20231;-76
2021/01/22 06:38:07;;;;;;;3.97;1.70;;;;;;;6.33;74.06;95889.78;5008241;28;20213;-76
2021/01/22 06:40:34;;;;;;;1.17;1.07;;;;;;;6.32;74.43;95888.16;5007875;28;20722;-74
2021/01/22 06:43:01;;;;;;;1.33;1.23;;;;;;;6.31;74.52;95890.94;5006068;28;20232;-72
2021/01/22 06:45:29;;;;;;;4.50;3.00;;;;;;;6.36;74.90;95891.19;5004582;28;20641;-70
2021/01/22 06:48:00;;;;;;;2.73;1.07;;;;;;;6.45;73.90;95892.72;5007609;28;20212;-71
2021/01/22 06:50:29;;;;;;;1.27;0.90;;;;;;;6.41;74.50;95909.06;5004570;28;20209;-72
2021/01/22 06:53:07;;;;;;;1.47;0.80;;;;;;;6.39;74.42;95892.66;5008837;28;20633;-72
2021/01/22 06:55:34;;;;;;;1.30;1.30;;;;;;;6.37;73.92;95891.03;5005440;28;20208;-74
2021/01/22 06:58:23;;;;;;;1.10;1.10;;;;;;;6.36;74.53;95885.94;5008197;28;21135;-75
2021/01/22 07:00:52;;;;;;;2.10;1.40;;;;;;;6.30;74.27;95895.41;4998408;28;20693;-73
2021/01/22 07:03:48;;;;;;;0.90;0.90;;;;;;;6.21;74.57;95905.25;5000523;28;20233;-70
2021/01/22 07:06:48;;;;;;;1.03;1.03;;;;;;;6.15;74.82;95905.16;5002566;28;20294;-74
2021/01/22 07:09:16;;;;;;;1.60;1.47;;;;;;;6.14;74.74;95900.91;5004677;28;20617;-76
2021/01/22 07:11:54;;;;;;;2.60;2.03;;;;;;;6.29;74.63;95906.13;5007108;28;20205;-73
2021/01/22 07:14:39;;;;;;;2.33;2.10;;;;;;;6.35;74.44;95893.03;5004463;28;20232;-76
2021/01/22 07:17:20;;;;;;;2.60;2.40;;;;;;;6.34;74.36;95896.66;5004398;28;20713;-75
2021/01/22 07:19:56;;;;;;;1.30;1.20;;;;;;;6.38;73.87;95894.44;5002736;28;20558;-75
2021/01/22 07:22:23;;;;;;;0.93;0.93;;;;;;;6.48;73.63;95894.13;5001156;28;20229;-74
2021/01/22 07:24:56;;;;;;;1.53;1.30;;;;;;;6.45;74.00;95890.09;5004712;28;20544;-74
2021/01/22 07:27:23;;;;;;;1.83;1.20;;;;;;;6.51;73.82;95901.66;5000593;28;20209;-73
2021/01/22 07:30:09;;;;;;;1.20;0.93;;;;;;;6.73;71.92;95889.25;5006195;28;20671;-76
2021/01/22 07:32:37;;;;;;;1.00;0.83;;;;;;;6.75;72.31;95887.25;5004825;28;20236;-77
2021/01/22 07:35:06;;;;;;;1.50;1.40;;;;;;;6.81;72.38;95890.94;5002393;28;20260;-76
2021/01/22 07:37:38;;;;;;;1.20;0.97;;;;;;;6.96;71.38;95885.59;5008716;28;20210;-74
2021/01/22 07:40:09;;;;;;;1.13;1.13;;;;;;;7.09;71.01;95879.59;5003064;28;20209;-76
2021/01/22 07:42:37;;;;;;;1.73;1.27;;;;;;;7.05;71.42;95899.41;5008785;28;20711;-74
2021/01/22 07:45:10;;;;;;;1.57;1.20;;;;;;;7.13;70.75;95899.25;5002440;28;20263;-76
2021/01/22 07:47:40;;;;;;;0.87;0.87;;;;;;;7.14;70.84;95894.78;5006475;28;20216;-76
2021/01/22 07:50:08;;;;;;;1.13;1.10;;;;;;;7.17;70.64;95894.41;5006791;28;20613;-76
2021/01/22 07:52:36;;;;;;;1.13;1.03;;;;;;;7.27;70.43;95892.25;5001754;28;20967;-75
2021/01/22 07:55:05;;;;;;;1.10;1.03;;;;;;;7.25;70.00;95902.16;5006652;28;20205;-74
2021/01/22 07:57:33;;;;;;;0.90;0.90;;;;;;;7.14;70.27;95890.34;5003159;28;20502;-75
2021/01/22 08:00:07;;;;;;;2.07;1.00;;;;;;;7.21;70.74;95891.19;5001187;28;20202;-75
2021/01/22 08:02:34;;;;;;;0.57;0.57;;;;;;;7.25;70.70;95894.25;5005056;28;20513;-78
2021/01/22 08:05:03;;;;;;;1.80;1.20;;;;;;;7.26;70.37;95901.16;4999537;28;20233;-76
2021/01/22 08:07:35;;;;;;;1.47;1.30;;;;;;;7.35;70.37;95904.44;4999185;28;20221;-77
2021/01/22 08:10:04;;;;;;;1.20;1.20;;;;;;;7.42;69.44;95901.84;5010230;28;20240;-78
2021/01/22 08:12:33;;;;;;;1.07;0.90;;;;;;;7.39;69.53;95906.50;5003770;28;20600;-75
2021/01/22 08:15:03;;;;;;;1.47;0.97;;;;;;;7.33;69.62;95903.81;5004157;28;20205;-76
2021/01/22 08:17:30;;;;;;;2.20;1.00;;;;;;;7.36;69.56;95924.50;5002281;28;20568;-74
2021/01/22 08:19:57;;;;;;;7.63;4.57;;;;;;;7.34;69.76;95924.72;5005486;28;20218;-75
2021/01/22 08:22:26;;;;;;;1.03;0.80;;;;;;;7.35;70.04;95914.97;5005339;28;20335;-75
2021/01/22 08:24:53;;;;;;;1.03;0.90;;;;;;;7.37;69.91;95920.84;5003380;28;20707;-77
2021/01/22 08:27:20;;;;;;;2.00;0.90;;;;;;;7.45;69.53;95923.34;5002901;28;20599;-77
2021/01/22 08:29:50;;;;;;;1.80;1.00;;;;;;;7.53;69.23;95930.25;5006313;28;20271;-78
2021/01/22 08:32:18;;;;;;;1.30;1.20;;;;;;;7.54;69.73;95921.34;4991832;28;20235;-75
2021/01/22 08:34:46;;;;;;;0.70;0.70;;;;;;;7.60;68.89;95930.31;5001355;28;20228;-77
2021/01/22 08:37:15;;;;;;;1.90;0.97;;;;;;;7.61;68.86;95918.75;5005391;28;20810;-74
2021/01/22 08:39:55;;;;;;;1.07;1.03;;;;;;;7.63;68.71;95922.00;5000981;28;20205;-75
2021/01/22 08:42:22;;;;;;;3.60;0.90;;;;;;;7.57;69.27;95913.03;5000653;28;20264;-74
2021/01/22 08:44:56;;;;;;;0.93;0.90;;;;;;;7.64;68.91;95915.72;4998241;28;20518;-76
2021/01/22 08:47:23;;;;;;;2.40;0.97;;;;;;;7.68;68.55;95904.59;5006147;28;20211;-75
2021/01/22 08:49:59;;;;;;;1.47;1.17;;;;;;;7.87;69.48;95910.13;5003849;28;20209;-75
2021/01/22 08:52:26;;;;;;;2.50;0.87;;;;;;;7.86;67.83;95905.06;5003098;28;20232;-75
2021/01/22 08:54:55;;;;;;;0.80;0.80;;;;;;;7.87;67.71;95914.59;5005968;28;20201;-75
2021/01/22 08:57:23;;;;;;;0.90;0.90;;;;;;;7.84;67.80;95904.44;5006332;28;20708;-73
2021/01/22 08:59:52;;;;;;;1.00;0.80;;;;;;;7.83;67.21;95916.81;5007742;28;20209;-75
2021/01/22 09:02:36;;;;;;;1.03;1.00;;;;;;;7.89;67.78;95891.47;5004309;28;20220;-76
2021/01/22 09:05:05;;;;;;;1.90;1.00;;;;;;;7.94;67.35;95904.88;5002313;28;20743;-77
2021/01/22 09:07:32;;;;;;;1.17;1.07;;;;;;;7.99;66.87;95894.53;5004743;28;20209;-76
2021/01/22 09:09:59;;;;;;;0.97;0.97;;;;;;;8.01;66.93;95889.88;5003870;28;20208;-78
2021/01/22 09:12:27;;;;;;;1.33;1.00;;;;;;;7.93;67.10;95903.25;5003047;28;20228;-76
2021/01/22 09:14:56;;;;;;;1.57;1.00;;;;;;;7.89;67.70;95902.81;5002293;28;20200;-77
2021/01/22 09:17:45;;;;;;;1.97;1.20;;;;;;;7.88;67.58;95901.19;5002207;28;20209;-75
2021/01/22 09:20:16;;;;;;;2.43;1.30;;;;;;;7.82;67.83;95907.28;5003391;28;20288;-77
2021/01/22 09:22:44;;;;;;;4.10;1.27;;;;;;;7.81;67.92;95906.47;5004410;28;20220;-75
2021/01/22 09:25:14;;;;;;;0.97;0.90;;;;;;;7.88;67.47;95895.91;5005420;28;20243;-76
2021/01/22 09:27:42;;;;;;;1.00;1.00;;;;;;;7.95;67.62;95906.50;4999883;28;20593;-75
2021/01/22 09:30:11;;;;;;;2.17;1.37;;;;;;;8.11;67.46;95903.47;5003485;28;20228;-74
2021/01/22 09:32:38;;;;;;;2.03;0.87;;;;;;;8.13;67.34;95897.19;5002010;28;20339;-73
2021/01/22 09:35:07;;;;;;;1.60;1.00;;;;;;;8.22;66.44;95898.66;5005002;28;20589;-76
2021/01/22 09:37:34;;;;;;;1.63;0.80;;;;;;;8.32;66.00;95901.72;5003856;28;20208;-76
2021/01/22 09:40:02;;;;;;;1.23;1.00;;;;;;;8.38;66.46;95900.91;5003805;28;20689;-77
2021/01/22 09:42:29;;;;;;;1.90;1.10;;;;;;;8.47;65.82;95898.06;5003415;28;20225;-75
2021/01/22 09:44:56;;;;;;;3.27;1.00;;;;;;;8.53;65.47;95894.66;5001292;28;20229;-77
2021/01/22 09:47:23;;;;;;;2.50;1.50;;;;;;;8.50;65.91;95892.41;5002622;28;20204;-72
2021/01/22 09:49:50;;;;;;;1.13;0.90;;;;;;;8.56;65.21;95891.63;4997170;28;20208;-75
2021/01/22 09:52:18;;;;;;;0.70;0.70;;;;;;;8.44;65.77;95886.09;4997992;28;20234;-75
2021/01/22 09:54:46;;;;;;;0.90;0.90;;;;;;;8.60;64.75;95895.47;5000436;28;20205;-76
2021/01/22 09:57:13;;;;;;;1.70;1.20;;;;;;;8.63;64.61;95899.50;5001930;28;20200;-77
2021/01/22 09:59:40;;;;;;;2.60;1.20;;;;;;;8.67;64.62;95885.72;5001274;28;20231;-75
2021/01/22 10:02:07;;;;;;;1.10;1.10;;;;;;;8.76;64.30;95875.75;5000665;28;20216;-75
2021/01/22 10:04:35;;;;;;;2.10;1.07;;;;;;;8.89;63.43;95877.56;5004419;28;20227;-76
2021/01/22 10:07:02;;;;;;;2.13;1.33;;;;;;;8.92;62.96;95879.81;5002165;28;20291;-77
2021/01/22 10:09:30;;;;;;;3.43;1.03;;;;;;;9.02;62.23;95863.50;4998865;28;20201;-75
2021/01/22 10:11:58;;;;;;;1.43;1.13;;;;;;;9.04;62.30;95868.59;5000754;28;20228;-75
2021/01/22 10:14:25;;;;;;;0.93;0.93;;;;;;;9.13;62.38;95870.00;5000969;28;20301;-74
2021/01/22 10:16:52;;;;;;;2.13;1.03;;;;;;;9.17;62.20;95876.50;5003935;28;20213;-76
2021/01/22 10:19:19;;;;;;;0.73;0.70;;;;;;;9.31;60.93;95869.34;5002243;28;20209;-75
2021/01/22 10:21:46;;;;;;;1.43;1.33;;;;;;;9.32;62.31;95867.53;5002042;28;20205;-76
2021/01/22 10:24:13;;;;;;;2.57;1.17;;;;;;;9.27;61.14;95876.88;5004476;28;20225;-75
2021/01/22 10:26:41;;;;;;;1.43;1.33;;;;;;;9.43;61.59;95868.69;5001894;28;20833;-76
2021/01/22 10:29:08;;;;;;;0.80;0.80;;;;;;;9.63;60.78;95874.72;5004354;28;20244;-76
2021/01/22 10:31:35;;;;;;;2.67;1.20;;;;;;;9.79;59.69;95862.84;5005114;28;20205;-76
2021/01/22 10:34:02;;;;;;;1.00;1.00;;;;;;;9.91;59.53;95864.81;5003236;28;20413;-76
2021/01/22 10:36:29;;;;;;;3.03;1.37;;;;;;;9.90;59.76;95855.25;5000025;28;20301;-76
2021/01/22 10:38:56;;;;;;;1.97;1.20;;;;;;;9.99;60.98;95856.63;5004253;28;20208;-77
2021/01/22 10:41:23;;;;;;;0.97;0.80;;;;;;;10.08;59.97;95851.91;5005769;28;20213;-78
2021/01/22 10:43:51;;;;;;;3.03;1.20;;;;;;;10.12;58.50;95845.97;5003974;28;20233;-76
2021/01/22 10:46:18;;;;;;;2.27;1.37;;;;;;;10.23;59.19;95855.06;5004069;28;20212;-77
2021/01/22 10:48:45;;;;;;;1.13;1.10;;;;;;;10.22;59.05;95849.97;5007010;28;20216;-75
2021/01/22 10:51:12;;;;;;;2.33;1.13;;;;;;;10.27;57.93;95850.97;5003599;28;20216;-76
2021/01/22 10:53:39;;;;;;;1.20;1.00;;;;;;;10.28;58.41;95849.94;5005345;28;20409;-77
2021/01/22 10:56:06;;;;;;;2.60;1.17;;;;;;;10.48;58.20;95856.94;5006440;28;20267;-77
2021/01/22 10:58:33;;;;;;;2.40;1.10;;;;;;;10.45;58.22;95841.47;5003790;28;20700;-77
2021/01/22 11:01:03;;;;;;;1.33;1.23;;;;;;;10.38;57.52;95846.78;5010323;28;20233;-76
2021/01/22 11:03:31;;;;;;;1.67;1.10;;;;;;;10.43;57.56;95846.19;5010278;28;20232;-76
2021/01/22 11:05:58;;;;;;;1.47;1.20;;;;;;;10.34;57.54;95840.31;5005915;28;20304;-75
2021/01/22 11:08:25;;;;;;;3.33;1.30;;;;;;;10.48;57.68;95843.69;5005193;28;20212;-74
2021/01/22 11:10:52;;;;;;;0.73;0.73;;;;;;;10.61;58.08;95837.47;5003165;28;20665;-74
2021/01/22 11:13:19;;;;;;;2.43;0.90;;;;;;;10.69;57.09;95839.06;5009482;28;20263;-76
2021/01/22 11:15:46;;;;;;;1.10;0.97;;;;;;;10.76;57.30;95839.78;5004772;28;20598;-75
2021/01/22 11:18:15;;;;;;;1.33;1.20;;;;;;;10.97;56.42;95835.09;5008367;28;20435;-76
2021/01/22 11:20:43;;;;;;;1.70;1.00;;;;;;;11.07;56.04;95838.06;5009435;28;20277;-75
2021/01/22 11:23:10;;;;;;;1.00;1.00;;;;;;;11.21;55.48;95836.09;5005242;28;20831;-77
2021/01/22 11:25:38;;;;;;;1.30;1.20;;;;;;;11.41;55.27;95830.56;5007778;28;20231;-76
2021/01/22 11:28:05;;;;;;;1.40;1.27;;;;;;;11.56;54.72;95832.00;5003233;28;20201;-74
2021/01/22 11:30:32;;;;;;;1.40;0.80;;;;;;;11.50;54.92;95822.28;5005740;28;20205;-74
2021/01/22 11:32:59;;;;;;;1.20;0.90;;;;;;;11.71;53.77;95824.44;5006866;28;20233;-76
2021/01/22 11:35:27;;;;;;;2.43;1.00;;;;;;;11.66;52.94;95832.28;5006000;28;20205;-76
2021/01/22 11:37:54;;;;;;;0.87;0.87;;;;;;;11.80;52.95;95826.81;5010458;28;20546;-75
2021/01/22 11:40:21;;;;;;;0.90;0.90;;;;;;;11.98;53.40;95815.34;5012174;28;20205;-76
2021/01/22 11:42:48;;;;;;;3.27;1.20;;;;;;;11.59;54.08;95807.69;5005755;28;20228;-76
2021/01/22 11:45:16;;;;;;;1.30;1.30;;;;;;;11.78;53.88;95815.63;5002328;28;20686;-74
2021/01/22 11:47:43;;;;;;;2.00;1.80;;;;;;;11.56;54.06;95821.38;5009962;28;20217;-75
2021/01/22 11:50:13;;;;;;;2.17;1.50;;;;;;;11.26;53.58;95817.66;5001834;28;20292;-75